Time;durP1;ratioP1;P1;durP2;ratioP2;P2;SDS_P1;SDS_P2;PMS_P1;PMS_P2;Temp;Humidity;BMP_temperature;BMP_pressure;BME280_temperature;BME280_humidity;BME280_pressure;Samples;Min_cycle;Max_cycle;Signal;HPM_P1;HPM_P2
2022/08/18 00:01:46;;;;;;;9.80;4.57;;;19.10;99.90;;;;;;5033226;28;20121;-68
2022/08/18 00:04:12;;;;;;;10.38;4.45;;;19.20;99.90;;;;;;5033874;28;20509;-69
2022/08/18 00:06:38;;;;;;;10.55;5.00;;;19.20;99.90;;;;;;5069388;28;20045;-70
2022/08/18 00:09:06;;;;;;;11.55;4.90;;;19.10;99.90;;;;;;5037030;28;20041;-69
2022/08/18 00:11:35;;;;;;;9.43;4.68;;;19.10;99.90;;;;;;5048809;28;20041;-71
2022/08/18 00:14:01;;;;;;;9.45;5.05;;;19.20;99.90;;;;;;5034941;28;20053;-70
2022/08/18 00:16:27;;;;;;;9.52;4.40;;;19.20;99.90;;;;;;5016633;28;20034;-70
2022/08/18 00:18:52;;;;;;;10.80;4.72;;;19.20;99.90;;;;;;5023325;28;20033;-70
2022/08/18 00:21:18;;;;;;;9.45;4.53;;;19.20;99.90;;;;;;5052611;28;20121;-71
2022/08/18 00:23:44;;;;;;;11.27;4.38;;;19.30;99.90;;;;;;5052763;28;20421;-73
2022/08/18 00:26:10;;;;;;;8.68;4.43;;;19.30;99.90;;;;;;5034049;28;20049;-73
2022/08/18 00:28:35;;;;;;;10.77;4.78;;;19.40;99.90;;;;;;5016978;28;20044;-72
2022/08/18 00:31:03;;;;;;;10.60;4.38;;;19.30;99.90;;;;;;5028442;28;20041;-73
2022/08/18 00:33:28;;;;;;;11.80;4.55;;;19.30;99.90;;;;;;5053181;28;20374;-73
2022/08/18 00:35:55;;;;;;;10.85;5.20;;;19.20;99.90;;;;;;5020307;28;20048;-71
2022/08/18 00:38:21;;;;;;;9.90;4.97;;;19.20;99.90;;;;;;5033272;28;20084;-73
2022/08/18 00:40:50;;;;;;;12.43;5.50;;;19.10;99.90;;;;;;5041886;28;20068;-72
2022/08/18 00:43:26;;;;;;;10.65;4.97;;;19.10;99.90;;;;;;5053086;28;20497;-72
2022/08/18 00:45:52;;;;;;;11.20;5.20;;;19.10;99.90;;;;;;5045040;28;20047;-73
2022/08/18 00:48:18;;;;;;;9.43;5.03;;;19.10;99.90;;;;;;5051669;28;20366;-72
2022/08/18 00:50:57;;;;;;;11.38;4.90;;;19.10;99.90;;;;;;5028042;28;20490;-72
2022/08/18 00:53:34;;;;;;;9.85;5.20;;;19.20;99.90;;;;;;5052947;28;20045;-71
2022/08/18 00:56:04;;;;;;;10.95;5.35;;;19.20;99.90;;;;;;5020115;28;20065;-73
2022/08/18 00:58:43;;;;;;;11.38;4.97;;;19.20;99.90;;;;;;5066348;28;20042;-71
2022/08/18 01:01:11;;;;;;;11.57;5.05;;;19.20;99.90;;;;;;5017272;28;20048;-71
2022/08/18 01:03:38;;;;;;;10.93;5.07;;;19.20;99.90;;;;;;5033039;28;20094;-71
2022/08/18 01:06:38;;;;;;;11.25;5.70;;;19.30;99.90;;;;;;5038913;28;20440;-72
2022/08/18 01:09:04;;;;;;;11.25;5.50;;;19.20;99.90;;;;;;5065649;28;20051;-71
2022/08/18 01:11:31;;;;;;;9.32;4.90;;;19.20;99.90;;;;;;5027324;28;20044;-72
2022/08/18 01:13:57;;;;;;;10.43;5.85;;;19.20;99.90;;;;;;5050757;28;20513;-72
2022/08/18 01:22:01;;;;;;;10.25;5.95;;;19.20;99.90;;;;;;5061862;28;20124;-69
2022/08/18 01:27:17;;;;;;;10.45;6.10;;;19.20;99.90;;;;;;5076831;28;20041;-71
2022/08/18 01:29:48;;;;;;;12.80;7.25;;;19.20;99.90;;;;;;5050869;28;20041;-70
2022/08/18 01:32:19;;;;;;;14.85;7.53;;;19.20;99.90;;;;;;5044796;28;20034;-70
2022/08/18 01:34:46;;;;;;;15.85;9.23;;;19.10;99.90;;;;;;5054085;28;20083;-70
2022/08/18 01:37:15;;;;;;;14.25;8.68;;;19.10;99.90;;;;;;5058289;28;20059;-71
2022/08/18 01:39:42;;;;;;;15.27;9.40;;;19.10;99.90;;;;;;5023434;28;20156;-71
2022/08/18 01:42:08;;;;;;;12.73;7.75;;;19.00;99.90;;;;;;5035974;28;20397;-71
2022/08/18 01:44:33;;;;;;;12.05;7.53;;;19.00;99.90;;;;;;5052343;28;20045;-71
2022/08/18 01:46:59;;;;;;;12.73;7.60;;;19.10;99.90;;;;;;5054429;28;20595;-71
2022/08/18 01:49:27;;;;;;;12.60;7.28;;;19.20;99.90;;;;;;5044673;28;20048;-71
2022/08/18 01:51:54;;;;;;;14.38;8.20;;;19.20;99.90;;;;;;5049806;28;20154;-71
2022/08/18 01:54:20;;;;;;;12.95;7.35;;;19.20;99.90;;;;;;5041457;28;20159;-71
2022/08/18 01:56:48;;;;;;;12.07;7.72;;;19.20;99.90;;;;;;5043922;28;20497;-72
2022/08/18 01:59:14;;;;;;;11.32;8.50;;;19.20;99.90;;;;;;5031949;28;20490;-72
2022/08/18 02:01:42;;;;;;;12.73;8.02;;;19.10;99.90;;;;;;5055113;28;20837;-73
2022/08/18 02:04:11;;;;;;;13.23;7.57;;;19.10;99.90;;;;;;5051499;28;20033;-72
2022/08/18 02:06:36;;;;;;;12.13;7.53;;;19.20;99.90;;;;;;5048880;28;20036;-72
2022/08/18 02:09:03;;;;;;;12.32;7.78;;;19.20;99.90;;;;;;5043935;28;20040;-73
2022/08/18 02:11:28;;;;;;;14.50;8.18;;;19.10;99.90;;;;;;5054197;28;20040;-73
2022/08/18 02:13:54;;;;;;;11.70;7.70;;;19.20;99.90;;;;;;5018700;28;20425;-72
2022/08/18 02:16:20;;;;;;;11.85;7.82;;;19.20;99.90;;;;;;5049212;28;20098;-71
2022/08/18 02:18:45;;;;;;;12.68;7.22;;;19.20;99.90;;;;;;5023807;28;20038;-71
2022/08/18 02:21:14;;;;;;;15.10;7.55;;;19.20;99.90;;;;;;5043055;28;20039;-72
2022/08/18 02:23:41;;;;;;;12.23;7.32;;;19.20;99.90;;;;;;5036401;28;20050;-72
2022/08/18 02:26:10;;;;;;;10.50;6.60;;;19.30;99.90;;;;;;5048687;28;20076;-72
2022/08/18 02:28:35;;;;;;;10.95;7.13;;;19.30;99.90;;;;;;5032144;28;20437;-73
2022/08/18 02:31:10;;;;;;;12.35;6.95;;;19.20;99.90;;;;;;5039551;28;20071;-74
2022/08/18 02:33:35;;;;;;;11.73;7.03;;;19.20;99.90;;;;;;5016185;28;20042;-73
2022/08/18 02:36:02;;;;;;;12.15;6.90;;;19.20;99.90;;;;;;5046728;28;20033;-72
2022/08/18 02:38:28;;;;;;;13.57;6.90;;;19.30;99.90;;;;;;5028162;28;20425;-74
2022/08/18 02:40:59;;;;;;;15.13;7.00;;;19.20;99.90;;;;;;5048280;28;20117;-73
2022/08/18 02:43:25;;;;;;;11.95;6.25;;;19.20;99.90;;;;;;5022919;28;20072;-73
2022/08/18 02:45:51;;;;;;;10.48;6.63;;;19.20;99.90;;;;;;5043905;28;20045;-73
2022/08/18 02:48:51;;;;;;;13.43;7.15;;;19.20;99.90;;;;;;5045807;28;20048;-72
2022/08/18 02:51:15;;;;;;;11.63;6.40;;;19.20;99.90;;;;;;5053928;28;20493;-73
2022/08/18 02:53:44;;;;;;;14.95;7.30;;;19.20;99.90;;;;;;5071725;28;20041;-73
2022/08/18 02:56:22;;;;;;;15.57;7.32;;;19.20;99.90;;;;;;5036314;28;20042;-73
2022/08/18 02:58:52;;;;;;;11.25;6.95;;;19.20;99.90;;;;;;5052641;28;20044;-72
2022/08/18 03:01:23;;;;;;;12.60;7.30;;;19.20;99.90;;;;;;5048869;28;20037;-73
2022/08/18 03:03:49;;;;;;;14.48;7.00;;;19.20;99.90;;;;;;5034231;28;20080;-72
2022/08/18 03:06:16;;;;;;;10.43;6.63;;;19.20;99.90;;;;;;5040332;28;20040;-73
2022/08/18 03:08:47;;;;;;;13.38;6.93;;;19.20;99.90;;;;;;5053366;28;20045;-72
2022/08/18 03:11:13;;;;;;;10.68;6.88;;;19.20;99.90;;;;;;5033312;28;20049;-73
2022/08/18 03:13:39;;;;;;;13.60;6.80;;;19.20;99.90;;;;;;5041659;28;20077;-73
2022/08/18 03:16:04;;;;;;;11.82;6.25;;;19.20;99.90;;;;;;5056201;28;20117;-72
2022/08/18 03:18:30;;;;;;;14.25;6.90;;;19.20;99.90;;;;;;5057963;28;20507;-71
2022/08/18 03:21:01;;;;;;;17.00;6.70;;;19.20;99.90;;;;;;5039769;28;20041;-72
2022/08/18 03:23:27;;;;;;;12.95;7.70;;;19.20;99.90;;;;;;5065707;28;20041;-72
2022/08/18 03:25:52;;;;;;;10.30;6.47;;;19.20;99.90;;;;;;5041430;28;20041;-72
2022/08/18 03:28:18;;;;;;;14.43;7.43;;;19.20;99.90;;;;;;5051436;28;20052;-73
2022/08/18 03:30:43;;;;;;;15.88;8.00;;;19.20;99.90;;;;;;5033199;28;20128;-74
2022/08/18 03:33:09;;;;;;;16.65;7.00;;;19.20;99.90;;;;;;5045915;28;20037;-73
2022/08/18 03:35:36;;;;;;;13.02;7.97;;;19.30;99.90;;;;;;5050617;28;20079;-74
2022/08/18 03:38:02;;;;;;;14.43;8.27;;;19.20;99.90;;;;;;5026909;28;20458;-73
2022/08/18 03:40:28;;;;;;;12.63;7.78;;;19.20;99.90;;;;;;5040567;28;20473;-73
2022/08/18 03:42:54;;;;;;;16.00;8.27;;;19.20;99.90;;;;;;5037515;28;20036;-74
2022/08/18 03:45:19;;;;;;;13.65;7.53;;;19.20;99.90;;;;;;5031071;28;20044;-73
2022/08/18 03:47:45;;;;;;;14.05;7.82;;;19.20;99.90;;;;;;5051503;28;20047;-73
2022/08/18 03:50:11;;;;;;;15.40;8.02;;;19.20;99.90;;;;;;5031662;28;20037;-73
2022/08/18 03:52:37;;;;;;;15.35;8.77;;;19.20;99.90;;;;;;5041124;28;20037;-73
2022/08/18 03:55:04;;;;;;;14.88;8.02;;;19.20;99.90;;;;;;5033966;28;20036;-74
2022/08/18 03:57:31;;;;;;;18.73;9.07;;;19.20;99.90;;;;;;5017677;28;20048;-74
2022/08/18 03:59:57;;;;;;;14.82;8.57;;;19.20;99.90;;;;;;5060107;28;20566;-73
2022/08/18 04:02:23;;;;;;;15.57;8.40;;;19.10;99.90;;;;;;5051814;28;20123;-72
2022/08/18 04:04:48;;;;;;;15.93;8.30;;;19.10;99.90;;;;;;5053016;28;20045;-73
2022/08/18 04:07:16;;;;;;;13.10;8.52;;;19.20;99.90;;;;;;5053472;28;20048;-73
2022/08/18 04:09:42;;;;;;;16.45;8.32;;;19.20;99.90;;;;;;5037187;28;20048;-73
2022/08/18 04:12:11;;;;;;;11.77;8.18;;;19.20;99.90;;;;;;5018992;28;20044;-73
2022/08/18 04:14:38;;;;;;;15.77;8.20;;;19.10;99.90;;;;;;5031772;28;20433;-73
2022/08/18 04:17:05;;;;;;;14.43;8.07;;;19.10;99.90;;;;;;5049568;28;20044;-73
2022/08/18 04:19:33;;;;;;;14.02;8.02;;;19.20;99.90;;;;;;5047511;28;20540;-73
2022/08/18 04:21:59;;;;;;;14.70;7.25;;;19.10;99.90;;;;;;5033250;28;20122;-73
2022/08/18 04:24:27;;;;;;;13.93;8.07;;;19.10;99.90;;;;;;5017146;28;20040;-73
2022/08/18 04:26:54;;;;;;;15.90;8.20;;;19.10;99.90;;;;;;5066206;28;20374;-73
2022/08/18 04:29:20;;;;;;;14.30;8.00;;;19.10;99.90;;;;;;5042178;28;20033;-73
2022/08/18 04:31:46;;;;;;;13.90;7.28;;;19.10;99.90;;;;;;5049091;28;20079;-73
2022/08/18 04:34:13;;;;;;;18.33;7.65;;;19.10;99.90;;;;;;5053709;28;20041;-72
2022/08/18 04:36:40;;;;;;;11.93;7.43;;;19.00;99.90;;;;;;5036624;28;20047;-73
2022/08/18 04:39:08;;;;;;;16.05;7.47;;;19.00;99.90;;;;;;5052301;28;20037;-73
2022/08/18 04:41:35;;;;;;;15.25;7.72;;;19.10;99.90;;;;;;5036626;28;20044;-73
2022/08/18 04:44:05;;;;;;;14.05;8.65;;;19.10;99.90;;;;;;5050970;28;20048;-73
2022/08/18 04:46:35;;;;;;;13.30;6.88;;;19.10;99.90;;;;;;5053004;28;20041;-72
2022/08/18 04:49:02;;;;;;;14.32;7.78;;;19.10;99.90;;;;;;5033891;28;20037;-73
2022/08/18 04:51:29;;;;;;;14.35;7.97;;;19.10;99.90;;;;;;5059648;28;20041;-73
2022/08/18 04:53:56;;;;;;;13.80;7.38;;;19.10;99.90;;;;;;5035445;28;20048;-73
2022/08/18 04:56:25;;;;;;;14.23;7.82;;;19.00;99.90;;;;;;5036285;28;20507;-72
2022/08/18 04:58:56;;;;;;;14.70;7.93;;;19.00;99.90;;;;;;5052270;28;20103;-72
2022/08/18 05:01:26;;;;;;;13.10;7.45;;;19.00;99.90;;;;;;5036405;28;20079;-73
2022/08/18 05:03:55;;;;;;;13.00;7.30;;;19.10;99.90;;;;;;5050204;28;20043;-73
2022/08/18 05:06:25;;;;;;;11.85;7.35;;;19.10;99.90;;;;;;5050557;28;20051;-73
2022/08/18 05:08:56;;;;;;;14.05;7.60;;;19.10;99.90;;;;;;5044255;28;20036;-73
2022/08/18 05:11:23;;;;;;;14.80;8.25;;;19.10;99.90;;;;;;5051397;28;20043;-73
2022/08/18 05:13:54;;;;;;;13.73;7.10;;;19.10;99.90;;;;;;5034083;28;20058;-73
2022/08/18 05:16:20;;;;;;;26.95;7.70;;;19.10;99.90;;;;;;5042821;28;20125;-73
2022/08/18 05:18:45;;;;;;;10.75;7.03;;;19.20;99.90;;;;;;5046019;28;20119;-73
2022/08/18 05:21:14;;;;;;;14.00;7.07;;;19.20;99.90;;;;;;5048113;28;20037;-73
2022/08/18 05:23:47;;;;;;;11.18;6.95;;;19.20;99.90;;;;;;5038884;28;20044;-73
2022/08/18 05:26:14;;;;;;;13.52;6.80;;;19.20;99.90;;;;;;5056907;28;20029;-73
2022/08/18 05:28:43;;;;;;;15.48;7.10;;;19.20;99.90;;;;;;5032506;28;20103;-73
2022/08/18 05:31:21;;;;;;;10.82;6.63;;;19.20;99.90;;;;;;5043329;28;20036;-73
2022/08/18 05:33:47;;;;;;;12.50;6.57;;;19.20;99.90;;;;;;5048685;28;20167;-73
2022/08/18 05:36:42;;;;;;;11.73;6.53;;;19.20;99.90;;;;;;5036162;28;20581;-73
2022/08/18 05:39:17;;;;;;;12.40;6.85;;;19.20;99.90;;;;;;5045743;28;20036;-73
2022/08/18 05:41:54;;;;;;;12.98;6.85;;;19.20;99.90;;;;;;5028384;28;20048;-73
2022/08/18 05:44:45;;;;;;;11.05;6.32;;;19.30;99.90;;;;;;5032670;28;20041;-73
2022/08/18 05:47:16;;;;;;;11.90;6.95;;;19.20;99.90;;;;;;5037836;28;20556;-73
2022/08/18 05:49:49;;;;;;;11.38;6.68;;;19.30;99.90;;;;;;5036161;28;20124;-74
2022/08/18 05:52:15;;;;;;;13.20;6.70;;;19.30;99.90;;;;;;5039639;28;21042;-73
2022/08/18 05:58:03;;;;;;;11.93;6.88;;;19.30;99.90;;;;;;4997990;28;20045;-74
2022/08/18 06:00:29;;;;;;;11.13;6.95;;;19.20;99.90;;;;;;5011786;28;20139;-74
2022/08/18 06:03:17;;;;;;;11.43;7.20;;;19.20;99.90;;;;;;5039499;28;20053;-73
2022/08/18 06:05:56;;;;;;;14.73;8.10;;;19.20;99.90;;;;;;5049047;28;20055;-74
2022/08/18 06:08:28;;;;;;;10.57;7.13;;;19.20;99.90;;;;;;5035504;28;20119;-74
2022/08/18 06:10:53;;;;;;;10.23;7.57;;;19.20;99.90;;;;;;5062777;28;20045;-74
2022/08/18 06:13:19;;;;;;;12.88;7.68;;;19.30;99.90;;;;;;5034582;28;20049;-73
2022/08/18 06:15:51;;;;;;;12.18;7.78;;;19.30;99.90;;;;;;5021668;28;20072;-74
2022/08/18 06:18:45;;;;;;;23.80;8.65;;;19.30;99.90;;;;;;5032931;28;20045;-74
2022/08/18 06:21:31;;;;;;;15.88;8.48;;;19.40;99.90;;;;;;5051271;28;20075;-74
2022/08/18 06:24:19;;;;;;;15.52;8.60;;;19.40;99.90;;;;;;5050297;28;20057;-74
2022/08/18 06:27:08;;;;;;;12.40;8.25;;;19.40;99.90;;;;;;5038369;28;20124;-74
2022/08/18 06:29:52;;;;;;;15.48;9.65;;;19.40;99.90;;;;;;5037994;28;20516;-74
2022/08/18 06:32:42;;;;;;;11.60;7.97;;;19.50;99.90;;;;;;5055201;28;20498;-74
2022/08/18 06:35:22;;;;;;;12.57;7.80;;;19.50;99.90;;;;;;5054371;28;20037;-74
2022/08/18 06:41:20;;;;;;;12.25;8.07;;;19.60;99.90;;;;;;5051566;28;20186;-74
2022/08/18 06:43:58;;;;;;;11.52;8.02;;;19.50;99.90;;;;;;5049590;28;20596;-74
2022/08/18 06:46:34;;;;;;;11.88;7.78;;;19.50;99.90;;;;;;5038332;28;20532;-74
2022/08/18 06:49:05;;;;;;;13.43;8.88;;;19.50;99.90;;;;;;5053398;28;20440;-74
2022/08/18 06:51:31;;;;;;;13.93;7.47;;;19.50;99.90;;;;;;5053285;28;20428;-74
2022/08/18 06:54:01;;;;;;;13.55;8.10;;;19.50;99.90;;;;;;5035188;28;20040;-74
2022/08/18 06:56:39;;;;;;;10.75;8.45;;;19.50;99.90;;;;;;5029034;28;20037;-74
2022/08/18 06:59:24;;;;;;;13.88;7.32;;;19.60;99.90;;;;;;5025925;28;20098;-74
2022/08/18 07:01:54;;;;;;;11.90;8.20;;;19.60;99.90;;;;;;5036041;28;20458;-74
2022/08/18 07:04:51;;;;;;;12.38;7.97;;;19.60;99.90;;;;;;5055051;28;20048;-74
2022/08/18 07:07:40;;;;;;;11.52;7.32;;;19.70;99.90;;;;;;5067295;28;20048;-74
2022/08/18 07:10:28;;;;;;;11.48;7.50;;;19.80;99.90;;;;;;5070639;28;20041;-74
2022/08/18 07:13:06;;;;;;;11.25;7.30;;;19.90;99.90;;;;;;5039168;28;20506;-74
2022/08/18 07:15:32;;;;;;;10.88;6.88;;;20.00;99.90;;;;;;5050745;28;20037;-74
2022/08/18 07:18:06;;;;;;;12.90;7.50;;;20.00;99.90;;;;;;5023256;28;20463;-74
2022/08/18 07:20:42;;;;;;;9.10;6.40;;;20.00;99.90;;;;;;5035038;28;20503;-74
2022/08/18 07:23:08;;;;;;;14.82;6.43;;;20.00;99.90;;;;;;5029750;28;20072;-74
2022/08/18 07:25:41;;;;;;;10.88;5.82;;;20.10;99.90;;;;;;5056534;28;20451;-74
2022/08/18 07:28:38;;;;;;;10.38;5.50;;;20.00;99.90;;;;;;5038247;28;20489;-74
2022/08/18 07:31:56;;;;;;;10.65;5.53;;;20.00;99.90;;;;;;5054565;28;20044;-76
2022/08/18 07:34:40;;;;;;;8.75;5.57;;;19.90;99.90;;;;;;5045281;28;20057;-74
2022/08/18 07:37:23;;;;;;;8.82;5.47;;;19.90;99.90;;;;;;5067335;28;20115;-74
2022/08/18 07:39:58;;;;;;;9.88;4.82;;;19.90;99.90;;;;;;5035439;28;20041;-74
2022/08/18 07:42:39;;;;;;;10.63;5.20;;;19.80;99.90;;;;;;5045230;28;20517;-74
2022/08/18 07:45:28;;;;;;;11.88;5.22;;;19.80;99.90;;;;;;5050209;28;20076;-74
2022/08/18 07:48:00;;;;;;;14.40;5.53;;;19.80;99.90;;;;;;5033113;28;20043;-74
2022/08/18 07:50:27;;;;;;;12.40;4.20;;;19.90;99.90;;;;;;5054210;28;20044;-74
2022/08/18 07:53:33;;;;;;;10.57;4.78;;;20.00;99.90;;;;;;5030601;28;20493;-74
2022/08/18 07:56:04;;;;;;;16.33;5.00;;;20.10;99.90;;;;;;5051602;28;20041;-74
2022/08/18 07:58:44;;;;;;;15.43;4.95;;;20.30;99.90;;;;;;5034989;28;20492;-74
2022/08/18 08:01:39;;;;;;;11.35;4.13;;;20.40;99.90;;;;;;5033831;28;20045;-74
2022/08/18 08:04:28;;;;;;;11.13;3.42;;;20.60;99.90;;;;;;4983911;28;20097;-74
2022/08/18 08:06:58;;;;;;;11.32;3.63;;;20.50;99.90;;;;;;5049781;28;20597;-74
2022/08/18 08:09:52;;;;;;;9.80;3.47;;;20.50;99.90;;;;;;5035379;28;20087;-75
2022/08/18 08:12:44;;;;;;;9.35;3.42;;;20.50;99.90;;;;;;5032405;28;20041;-75
2022/08/18 08:15:48;;;;;;;10.85;3.47;;;20.50;99.90;;;;;;5036256;28;20085;-75
2022/08/18 08:18:28;;;;;;;10.73;3.20;;;20.40;99.90;;;;;;5033683;28;20052;-75
2022/08/18 08:20:58;;;;;;;11.13;3.50;;;20.50;99.90;;;;;;5050507;28;20046;-75
2022/08/18 08:23:51;;;;;;;9.57;2.88;;;20.40;99.90;;;;;;5033218;28;20038;-75
2022/08/18 08:26:41;;;;;;;11.02;3.40;;;20.40;99.90;;;;;;5020612;28;20049;-75
2022/08/18 08:29:28;;;;;;;10.48;3.13;;;20.30;99.90;;;;;;5051306;28;20045;-75
2022/08/18 08:32:08;;;;;;;9.48;3.03;;;20.30;99.90;;;;;;5040730;28;20040;-75
2022/08/18 08:34:39;;;;;;;10.43;3.75;;;20.40;99.90;;;;;;5032278;28;20073;-79
2022/08/18 08:37:13;;;;;;;8.18;2.60;;;20.50;99.90;;;;;;5050600;28;20444;-76
2022/08/18 08:39:52;;;;;;;10.93;3.03;;;20.60;99.90;;;;;;5046157;28;20422;-76
2022/08/18 08:42:31;;;;;;;9.48;3.10;;;20.70;99.90;;;;;;5039559;28;20038;-75
2022/08/18 08:45:03;;;;;;;11.38;3.13;;;20.70;99.90;;;;;;5020319;28;20044;-75
2022/08/18 08:47:51;;;;;;;10.43;2.90;;;20.60;99.90;;;;;;5033680;28;20045;-75
2022/08/18 08:50:21;;;;;;;7.97;2.90;;;20.60;99.90;;;;;;5034395;28;20374;-75
2022/08/18 08:53:15;;;;;;;9.50;2.78;;;20.60;99.90;;;;;;5036428;28;20428;-76
2022/08/18 08:55:46;;;;;;;8.30;2.67;;;20.60;99.90;;;;;;5036501;28;20044;-76
2022/08/18 08:58:43;;;;;;;8.25;2.50;;;20.60;99.90;;;;;;5036585;28;20036;-76
2022/08/18 09:01:27;;;;;;;9.60;2.40;;;20.60;99.90;;;;;;5053092;28;20394;-76
2022/08/18 09:04:13;;;;;;;11.38;2.47;;;20.70;99.90;;;;;;5052710;28;20037;-76
2022/08/18 09:07:07;;;;;;;9.90;3.00;;;20.70;99.90;;;;;;5031249;28;20409;-76
2022/08/18 09:10:06;;;;;;;9.63;2.55;;;20.70;99.90;;;;;;5045371;28;20072;-76
2022/08/18 09:12:48;;;;;;;7.32;2.40;;;20.80;99.90;;;;;;5043976;28;20048;-75
2022/08/18 09:15:42;;;;;;;8.98;2.60;;;20.70;99.90;;;;;;5016129;28;20041;-76
2022/08/18 09:18:24;;;;;;;9.15;2.80;;;20.70;99.90;;;;;;5041514;28;20083;-76
2022/08/18 09:21:29;;;;;;;8.23;2.80;;;20.70;99.90;;;;;;5049202;28;20501;-76
2022/08/18 09:24:37;;;;;;;7.50;2.72;;;20.70;99.90;;;;;;5043163;28;20037;-76
2022/08/18 09:27:02;;;;;;;6.20;2.30;;;20.80;99.90;;;;;;5046148;28;20059;-76
2022/08/18 09:29:37;;;;;;;6.38;2.20;;;20.80;99.90;;;;;;5070800;28;20045;-75
2022/08/18 09:32:24;;;;;;;4.90;2.00;;;21.00;99.90;;;;;;5047169;28;20049;-75
2022/08/18 09:35:21;;;;;;;6.47;1.90;;;20.90;99.90;;;;;;5018310;28;20564;-76
2022/08/18 09:44:11;;;;;;;6.35;2.15;;;20.90;99.90;;;;;;5052167;28;20404;-75
2022/08/18 09:46:42;;;;;;;5.68;2.30;;;21.00;99.90;;;;;;5047657;28;20094;-76
2022/08/18 09:49:26;;;;;;;5.32;1.75;;;20.90;99.90;;;;;;5035318;28;20509;-75
2022/08/18 09:51:58;;;;;;;8.07;2.35;;;20.90;99.90;;;;;;5044339;28;20040;-76
2022/08/18 09:54:30;;;;;;;4.88;2.13;;;20.90;99.90;;;;;;5030467;28;20528;-75
2022/08/18 09:57:16;;;;;;;4.70;1.90;;;20.90;99.90;;;;;;5062034;28;20044;-75
2022/08/18 09:59:46;;;;;;;5.68;2.33;;;20.90;99.90;;;;;;5051660;28;20033;-75
2022/08/18 10:02:31;;;;;;;5.57;2.15;;;20.90;99.90;;;;;;5034785;28;20040;-75
2022/08/18 10:05:19;;;;;;;5.30;2.20;;;20.90;99.90;;;;;;5067725;28;20104;-75
2022/08/18 10:07:48;;;;;;;5.68;2.03;;;20.80;99.90;;;;;;5024914;28;20048;-75
2022/08/18 10:10:40;;;;;;;6.53;2.38;;;20.80;99.90;;;;;;5033194;28;20048;-75
2022/08/18 10:13:28;;;;;;;5.55;1.95;;;20.80;99.90;;;;;;5041657;28;20053;-75
2022/08/18 10:16:15;;;;;;;4.88;2.50;;;20.70;99.90;;;;;;5020557;28;20040;-75
2022/08/18 10:19:03;;;;;;;6.25;2.20;;;20.80;99.90;;;;;;5033574;28;20088;-75
2022/08/18 10:21:57;;;;;;;8.07;2.42;;;20.80;99.90;;;;;;5015309;28;20041;-80
2022/08/18 10:24:33;;;;;;;5.45;2.20;;;20.90;99.90;;;;;;5044536;28;20449;-74
2022/08/18 10:27:01;;;;;;;6.43;2.15;;;21.00;99.90;;;;;;5014972;28;20522;-74
2022/08/18 10:29:30;;;;;;;6.95;2.13;;;21.00;99.90;;;;;;5029178;28;20025;-74
2022/08/18 10:31:56;;;;;;;5.80;1.95;;;21.10;99.90;;;;;;5050324;28;20041;-74
2022/08/18 10:34:46;;;;;;;7.30;2.00;;;21.10;99.90;;;;;;5051419;28;20421;-74
2022/08/18 10:37:17;;;;;;;7.28;2.40;;;21.00;99.90;;;;;;5034799;28;20482;-74
2022/08/18 10:39:46;;;;;;;6.95;2.03;;;21.00;99.90;;;;;;5045662;28;20215;-74
2022/08/18 10:42:31;;;;;;;6.22;2.20;;;21.10;99.90;;;;;;5031142;28;20057;-74
2022/08/18 10:45:26;;;;;;;4.95;1.77;;;21.10;99.90;;;;;;5031514;28;20034;-74
2022/08/18 10:47:59;;;;;;;6.97;2.00;;;21.20;99.90;;;;;;5063427;28;20075;-74
2022/08/18 10:50:27;;;;;;;6.85;2.53;;;21.30;99.90;;;;;;5033613;28;20033;-74
2022/08/18 10:53:14;;;;;;;5.80;2.00;;;21.30;99.90;;;;;;5034663;28;20131;-74
2022/08/18 10:55:59;;;;;;;7.50;2.17;;;21.20;99.90;;;;;;5034942;28;20090;-74
2022/08/18 10:58:50;;;;;;;8.27;2.22;;;21.30;99.90;;;;;;5051386;28;20052;-74
2022/08/18 11:01:41;;;;;;;5.18;1.90;;;21.30;99.90;;;;;;5051558;28;20111;-74
2022/08/18 11:04:09;;;;;;;7.87;2.23;;;21.30;99.90;;;;;;5033482;28;20049;-72
2022/08/18 11:06:40;;;;;;;5.57;2.00;;;21.30;99.90;;;;;;5057993;28;20069;-74
2022/08/18 11:09:06;;;;;;;5.15;2.10;;;21.30;99.90;;;;;;5057914;28;20037;-74
2022/08/18 11:11:41;;;;;;;4.72;2.10;;;21.20;99.90;;;;;;5018533;28;20071;-74
2022/08/18 11:14:40;;;;;;;7.05;2.55;;;21.30;99.90;;;;;;5018132;28;20496;-74
2022/08/18 11:17:32;;;;;;;8.20;2.03;;;21.10;99.90;;;;;;5051238;28;20034;-74
2022/08/18 11:20:00;;;;;;;7.55;1.90;;;21.10;99.90;;;;;;5032746;28;20034;-74
2022/08/18 11:22:25;;;;;;;6.03;1.98;;;21.10;99.90;;;;;;5026167;28;20410;-74
2022/08/18 11:24:51;;;;;;;7.15;1.88;;;21.00;99.90;;;;;;5045977;28;20039;-74
2022/08/18 11:27:27;;;;;;;4.68;1.70;;;21.00;99.90;;;;;;5045757;28;20562;-74
2022/08/18 11:29:53;;;;;;;6.95;2.35;;;21.10;99.90;;;;;;5051530;28;20497;-75
2022/08/18 11:32:25;;;;;;;7.05;2.10;;;21.20;99.90;;;;;;5055077;28;20093;-74
2022/08/18 11:35:17;;;;;;;6.72;2.47;;;21.30;99.90;;;;;;5026046;28;20036;-74
2022/08/18 11:37:42;;;;;;;;;;;21.30;99.90;;;;;;5052328;28;20034;-74
2022/08/18 11:40:30;;;;;;;6.82;2.10;;;21.30;99.90;;;;;;5053805;28;19917;-74
2022/08/18 11:43:01;;;;;;;7.47;2.40;;;21.40;99.90;;;;;;5023343;28;20044;-74
2022/08/18 11:45:54;;;;;;;9.33;2.50;;;21.50;99.90;;;;;;5031762;28;20405;-74
2022/08/18 11:48:23;;;;;;;7.40;2.17;;;21.50;99.90;;;;;;5025962;28;20051;-74
2022/08/18 11:50:54;;;;;;;6.30;2.10;;;21.70;99.90;;;;;;5047508;28;20558;-74
2022/08/18 11:53:38;;;;;;;8.32;2.25;;;21.60;99.90;;;;;;5044482;28;20052;-74
2022/08/18 11:56:18;;;;;;;7.63;2.08;;;21.70;99.90;;;;;;5045174;28;20037;-74
2022/08/18 11:58:48;;;;;;;6.97;2.20;;;21.70;99.90;;;;;;5034015;28;20033;-74
2022/08/18 12:01:32;;;;;;;5.75;2.42;;;21.90;99.90;;;;;;5036841;28;20394;-74
2022/08/18 12:03:59;;;;;;;6.85;2.50;;;21.90;99.90;;;;;;5046898;28;20485;-74
2022/08/18 12:06:29;;;;;;;6.45;2.22;;;21.90;99.90;;;;;;5023077;28;20080;-75
2022/08/18 12:09:14;;;;;;;6.28;2.10;;;22.00;99.90;;;;;;5041672;28;20048;-75
2022/08/18 12:12:02;;;;;;;4.55;2.20;;;21.90;99.90;;;;;;5024554;28;20052;-75
2022/08/18 12:14:32;;;;;;;5.45;2.08;;;21.80;99.90;;;;;;5045225;28;20041;-75
2022/08/18 12:16:57;;;;;;;7.95;2.15;;;21.80;99.90;;;;;;5034434;28;20120;-74
2022/08/18 12:19:26;;;;;;;8.60;2.10;;;21.80;99.90;;;;;;5043168;28;20476;-74
2022/08/18 12:21:58;;;;;;;5.15;1.98;;;21.70;99.90;;;;;;5038971;28;20441;-74
2022/08/18 12:24:27;;;;;;;5.07;2.15;;;21.60;99.90;;;;;;5033529;28;20037;-75
2022/08/18 12:26:53;;;;;;;7.53;2.20;;;21.70;99.90;;;;;;5031558;28;20033;-74
2022/08/18 12:29:19;;;;;;;6.20;2.67;;;21.80;99.90;;;;;;5021513;28;20498;-75
2022/08/18 12:31:47;;;;;;;6.80;2.33;;;21.80;99.90;;;;;;5053452;28;20045;-74
2022/08/18 12:34:12;;;;;;;6.38;2.10;;;21.90;99.90;;;;;;5016102;28;20120;-74
2022/08/18 12:36:39;;;;;;;4.20;1.88;;;22.00;99.90;;;;;;5040379;28;20113;-74
2022/08/18 12:39:05;;;;;;;7.03;2.10;;;22.00;99.90;;;;;;5034216;28;20060;-79
2022/08/18 12:41:31;;;;;;;6.40;1.98;;;21.90;99.90;;;;;;5042900;28;20071;-81
2022/08/18 12:43:56;;;;;;;6.20;2.33;;;22.00;99.90;;;;;;5067476;28;20123;-79
2022/08/18 12:46:23;;;;;;;6.28;2.30;;;21.80;99.90;;;;;;5039989;28;20046;-79
2022/08/18 12:48:49;;;;;;;3.72;2.00;;;21.90;99.90;;;;;;5063851;28;20041;-79
2022/08/18 12:51:14;;;;;;;5.82;2.58;;;21.80;99.90;;;;;;5052979;28;20037;-79
2022/08/18 12:53:40;;;;;;;6.25;2.47;;;21.80;99.90;;;;;;5063150;28;20056;-79
2022/08/18 12:56:18;;;;;;;4.72;2.08;;;21.80;99.90;;;;;;5034574;28;20040;-79
2022/08/18 12:58:43;;;;;;;6.07;2.17;;;21.80;99.90;;;;;;5065705;28;20052;-79
2022/08/18 13:01:09;;;;;;;6.25;2.35;;;21.80;99.90;;;;;;5034336;28;20025;-80
2022/08/18 13:03:35;;;;;;;7.93;2.47;;;21.80;99.90;;;;;;5061407;28;20071;-79
2022/08/18 13:06:01;;;;;;;8.15;2.60;;;21.80;99.90;;;;;;5051389;28;20037;-79
2022/08/18 13:08:27;;;;;;;4.72;2.42;;;21.80;99.90;;;;;;5065955;28;20780;-79
2022/08/18 13:10:53;;;;;;;8.27;2.47;;;21.80;99.90;;;;;;5032761;28;20495;-80
2022/08/18 13:13:18;;;;;;;5.03;2.13;;;21.60;99.90;;;;;;5038122;28;20094;-79
2022/08/18 13:15:45;;;;;;;6.35;2.35;;;21.70;99.90;;;;;;5034593;28;20139;-79
2022/08/18 13:18:12;;;;;;;7.05;2.50;;;21.70;99.90;;;;;;5052452;28;20049;-78
2022/08/18 13:20:38;;;;;;;6.78;2.22;;;21.80;99.90;;;;;;5020792;28;20068;-79
2022/08/18 13:23:04;;;;;;;4.75;2.22;;;21.70;99.90;;;;;;5065659;28;20075;-79
2022/08/18 13:25:29;;;;;;;5.45;2.20;;;21.90;99.90;;;;;;5049456;28;20051;-79
2022/08/18 13:27:55;;;;;;;5.40;2.08;;;21.90;99.90;;;;;;5029177;28;20049;-79
2022/08/18 13:30:21;;;;;;;5.63;2.35;;;21.90;99.90;;;;;;5032546;28;20045;-81
2022/08/18 13:32:47;;;;;;;4.03;2.13;;;22.00;99.90;;;;;;5033215;28;20557;-75
2022/08/18 13:35:13;;;;;;;6.45;2.15;;;22.00;99.90;;;;;;5040210;28;20155;-76